sensor_id;sensor_type;location;lat;lon;timestamp;P1;durP1;ratioP1;P2;durP2;ratioP2
75634;SDS011;64227;48.724;9.104;2023-01-28T00:00:28;3.80;;;2.75;;
75634;SDS011;64227;48.724;9.104;2023-01-28T00:02:53;5.63;;;3.17;;
75634;SDS011;64227;48.724;9.104;2023-01-28T00:05:19;4.60;;;3.13;;
75634;SDS011;64227;48.724;9.104;2023-01-28T00:07:44;5.10;;;2.90;;
75634;SDS011;64227;48.724;9.104;2023-01-28T00:10:10;6.38;;;3.33;;
75634;SDS011;64227;48.724;9.104;2023-01-28T00:12:35;5.88;;;3.15;;
75634;SDS011;64227;48.724;9.104;2023-01-28T00:15:01;5.63;;;3.22;;
75634;SDS011;64227;48.724;9.104;2023-01-28T00:17:26;7.15;;;3.85;;
75634;SDS011;64227;48.724;9.104;2023-01-28T00:19:51;6.40;;;3.30;;
75634;SDS011;64227;48.724;9.104;2023-01-28T00:22:16;3.90;;;2.70;;
75634;SDS011;64227;48.724;9.104;2023-01-28T00:24:42;6.97;;;3.42;;
75634;SDS011;64227;48.724;9.104;2023-01-28T00:27:07;5.95;;;3.35;;
75634;SDS011;64227;48.724;9.104;2023-01-28T00:29:33;6.47;;;3.47;;
75634;SDS011;64227;48.724;9.104;2023-01-28T00:31:58;5.90;;;2.90;;
75634;SDS011;64227;48.724;9.104;2023-01-28T00:34:23;7.40;;;3.90;;
75634;SDS011;64227;48.724;9.104;2023-01-28T00:36:49;5.07;;;3.13;;
75634;SDS011;64227;48.724;9.104;2023-01-28T00:39:22;7.20;;;3.42;;
75634;SDS011;64227;48.724;9.104;2023-01-28T00:41:49;4.88;;;2.60;;
75634;SDS011;64227;48.724;9.104;2023-01-28T00:44:14;4.63;;;2.20;;
75634;SDS011;64227;48.724;9.104;2023-01-28T00:46:39;3.92;;;2.40;;
75634;SDS011;64227;48.724;9.104;2023-01-28T00:49:06;4.53;;;2.53;;
75634;SDS011;64227;48.724;9.104;2023-01-28T00:51:31;4.43;;;2.60;;
75634;SDS011;64227;48.724;9.104;2023-01-28T00:53:56;3.95;;;1.83;;
75634;SDS011;64227;48.724;9.104;2023-01-28T00:56:22;4.97;;;2.70;;
75634;SDS011;64227;48.724;9.104;2023-01-28T00:58:47;4.97;;;3.08;;
75634;SDS011;64227;48.724;9.104;2023-01-28T01:06:07;3.78;;;2.03;;
75634;SDS011;64227;48.724;9.104;2023-01-28T01:08:33;6.25;;;2.55;;
75634;SDS011;64227;48.724;9.104;2023-01-28T01:10:59;4.13;;;2.40;;
75634;SDS011;64227;48.724;9.104;2023-01-28T01:13:28;4.30;;;2.40;;
75634;SDS011;64227;48.724;9.104;2023-01-28T01:16:00;3.67;;;1.73;;
75634;SDS011;64227;48.724;9.104;2023-01-28T01:18:26;4.50;;;2.47;;
75634;SDS011;64227;48.724;9.104;2023-01-28T01:20:51;5.60;;;3.22;;
75634;SDS011;64227;48.724;9.104;2023-01-28T01:23:22;3.63;;;2.30;;
75634;SDS011;64227;48.724;9.104;2023-01-28T01:25:48;3.10;;;2.00;;
75634;SDS011;64227;48.724;9.104;2023-01-28T01:28:14;2.67;;;2.30;;
75634;SDS011;64227;48.724;9.104;2023-01-28T01:30:39;3.63;;;2.20;;
75634;SDS011;64227;48.724;9.104;2023-01-28T01:33:04;4.50;;;2.47;;
75634;SDS011;64227;48.724;9.104;2023-01-28T01:35:30;5.05;;;3.05;;
75634;SDS011;64227;48.724;9.104;2023-01-28T01:37:55;4.03;;;2.10;;
75634;SDS011;64227;48.724;9.104;2023-01-28T01:40:20;5.07;;;2.53;;
75634;SDS011;64227;48.724;9.104;2023-01-28T01:42:46;5.10;;;2.83;;
75634;SDS011;64227;48.724;9.104;2023-01-28T01:45:11;6.33;;;3.47;;
75634;SDS011;64227;48.724;9.104;2023-01-28T01:48:12;4.32;;;2.28;;
75634;SDS011;64227;48.724;9.104;2023-01-28T01:50:44;4.88;;;2.58;;
75634;SDS011;64227;48.724;9.104;2023-01-28T01:53:15;3.60;;;2.10;;
75634;SDS011;64227;48.724;9.104;2023-01-28T01:55:44;4.15;;;2.47;;
75634;SDS011;64227;48.724;9.104;2023-01-28T01:58:15;3.65;;;2.13;;
75634;SDS011;64227;48.724;9.104;2023-01-28T02:00:42;4.30;;;2.58;;
75634;SDS011;64227;48.724;9.104;2023-01-28T02:03:10;5.72;;;2.38;;
75634;SDS011;64227;48.724;9.104;2023-01-28T02:05:36;4.70;;;2.60;;
75634;SDS011;64227;48.724;9.104;2023-01-28T02:08:02;4.63;;;2.45;;
75634;SDS011;64227;48.724;9.104;2023-01-28T02:10:50;4.18;;;2.72;;
75634;SDS011;64227;48.724;9.104;2023-01-28T02:13:18;3.10;;;2.30;;
75634;SDS011;64227;48.724;9.104;2023-01-28T02:15:46;2.97;;;1.95;;
75634;SDS011;64227;48.724;9.104;2023-01-28T02:18:12;4.53;;;2.28;;
75634;SDS011;64227;48.724;9.104;2023-01-28T02:29:25;6.15;;;2.47;;
75634;SDS011;64227;48.724;9.104;2023-01-28T02:32:03;3.42;;;2.38;;
75634;SDS011;64227;48.724;9.104;2023-01-28T02:37:24;3.45;;;2.10;;
75634;SDS011;64227;48.724;9.104;2023-01-28T02:40:00;3.17;;;1.90;;
75634;SDS011;64227;48.724;9.104;2023-01-28T02:42:30;4.68;;;2.70;;
75634;SDS011;64227;48.724;9.104;2023-01-28T02:44:58;4.50;;;2.15;;
75634;SDS011;64227;48.724;9.104;2023-01-28T02:47:23;4.43;;;2.25;;
75634;SDS011;64227;48.724;9.104;2023-01-28T02:50:16;3.17;;;1.88;;
75634;SDS011;64227;48.724;9.104;2023-01-28T02:58:44;3.60;;;2.00;;
75634;SDS011;64227;48.724;9.104;2023-01-28T03:01:23;3.97;;;2.20;;
75634;SDS011;64227;48.724;9.104;2023-01-28T03:03:58;3.35;;;2.35;;
75634;SDS011;64227;48.724;9.104;2023-01-28T03:06:31;5.35;;;2.65;;
75634;SDS011;64227;48.724;9.104;2023-01-28T03:09:03;2.92;;;1.85;;
75634;SDS011;64227;48.724;9.104;2023-01-28T03:11:50;3.85;;;1.90;;
75634;SDS011;64227;48.724;9.104;2023-01-28T03:20:56;5.68;;;2.13;;
75634;SDS011;64227;48.724;9.104;2023-01-28T03:23:57;3.75;;;2.60;;
75634;SDS011;64227;48.724;9.104;2023-01-28T03:27:05;5.28;;;2.55;;
75634;SDS011;64227;48.724;9.104;2023-01-28T03:29:55;3.25;;;2.08;;
75634;SDS011;64227;48.724;9.104;2023-01-28T03:32:41;3.47;;;1.83;;
75634;SDS011;64227;48.724;9.104;2023-01-28T03:35:27;3.45;;;2.15;;
75634;SDS011;64227;48.724;9.104;2023-01-28T03:38:12;4.25;;;2.20;;
75634;SDS011;64227;48.724;9.104;2023-01-28T03:40:50;3.92;;;2.40;;
75634;SDS011;64227;48.724;9.104;2023-01-28T03:43:20;4.85;;;2.78;;
75634;SDS011;64227;48.724;9.104;2023-01-28T03:45:46;5.97;;;2.97;;
75634;SDS011;64227;48.724;9.104;2023-01-28T03:48:15;4.05;;;2.67;;
75634;SDS011;64227;48.724;9.104;2023-01-28T03:50:42;5.10;;;2.67;;
75634;SDS011;64227;48.724;9.104;2023-01-28T03:53:07;4.87;;;2.97;;
75634;SDS011;64227;48.724;9.104;2023-01-28T03:55:39;4.60;;;3.15;;
75634;SDS011;64227;48.724;9.104;2023-01-28T03:58:05;5.20;;;3.03;;
75634;SDS011;64227;48.724;9.104;2023-01-28T04:00:30;4.50;;;2.77;;
75634;SDS011;64227;48.724;9.104;2023-01-28T04:03:02;3.90;;;2.65;;
75634;SDS011;64227;48.724;9.104;2023-01-28T04:05:39;5.35;;;3.10;;
75634;SDS011;64227;48.724;9.104;2023-01-28T04:08:05;6.60;;;2.80;;
75634;SDS011;64227;48.724;9.104;2023-01-28T04:10:31;5.10;;;3.08;;
75634;SDS011;64227;48.724;9.104;2023-01-28T04:12:56;6.20;;;2.95;;
75634;SDS011;64227;48.724;9.104;2023-01-28T04:15:22;5.07;;;2.97;;
75634;SDS011;64227;48.724;9.104;2023-01-28T04:17:48;5.28;;;3.28;;
75634;SDS011;64227;48.724;9.104;2023-01-28T04:20:13;5.05;;;3.30;;
75634;SDS011;64227;48.724;9.104;2023-01-28T04:22:39;7.05;;;3.38;;
75634;SDS011;64227;48.724;9.104;2023-01-28T04:25:05;6.05;;;3.50;;
75634;SDS011;64227;48.724;9.104;2023-01-28T04:27:30;3.63;;;2.83;;
75634;SDS011;64227;48.724;9.104;2023-01-28T04:29:56;4.22;;;2.38;;
75634;SDS011;64227;48.724;9.104;2023-01-28T04:32:22;4.57;;;2.88;;
75634;SDS011;64227;48.724;9.104;2023-01-28T04:34:47;4.68;;;2.80;;
75634;SDS011;64227;48.724;9.104;2023-01-28T04:37:12;6.27;;;3.40;;
75634;SDS011;64227;48.724;9.104;2023-01-28T04:39:38;6.78;;;3.30;;
75634;SDS011;64227;48.724;9.104;2023-01-28T04:42:03;5.17;;;3.50;;
75634;SDS011;64227;48.724;9.104;2023-01-28T04:44:28;5.93;;;2.85;;
75634;SDS011;64227;48.724;9.104;2023-01-28T04:46:54;4.47;;;2.77;;
75634;SDS011;64227;48.724;9.104;2023-01-28T04:49:19;5.28;;;3.03;;
75634;SDS011;64227;48.724;9.104;2023-01-28T04:51:44;5.83;;;2.67;;
75634;SDS011;64227;48.724;9.104;2023-01-28T04:54:10;4.53;;;3.00;;
75634;SDS011;64227;48.724;9.104;2023-01-28T04:56:35;5.33;;;3.33;;
75634;SDS011;64227;48.724;9.104;2023-01-28T04:59:00;4.63;;;2.92;;
75634;SDS011;64227;48.724;9.104;2023-01-28T05:01:26;4.80;;;3.35;;
75634;SDS011;64227;48.724;9.104;2023-01-28T05:03:52;4.90;;;2.70;;
75634;SDS011;64227;48.724;9.104;2023-01-28T05:06:17;4.82;;;3.22;;
75634;SDS011;64227;48.724;9.104;2023-01-28T05:08:43;6.83;;;3.43;;
75634;SDS011;64227;48.724;9.104;2023-01-28T05:11:10;5.47;;;3.03;;
75634;SDS011;64227;48.724;9.104;2023-01-28T05:13:35;6.95;;;4.00;;
75634;SDS011;64227;48.724;9.104;2023-01-28T05:16:00;5.45;;;3.42;;
75634;SDS011;64227;48.724;9.104;2023-01-28T05:18:26;6.37;;;3.60;;
75634;SDS011;64227;48.724;9.104;2023-01-28T05:20:51;5.35;;;2.97;;
75634;SDS011;64227;48.724;9.104;2023-01-28T05:23:16;5.77;;;3.47;;
75634;SDS011;64227;48.724;9.104;2023-01-28T05:25:42;3.70;;;2.60;;
75634;SDS011;64227;48.724;9.104;2023-01-28T05:28:07;5.40;;;3.00;;
75634;SDS011;64227;48.724;9.104;2023-01-28T05:30:32;5.03;;;2.55;;
75634;SDS011;64227;48.724;9.104;2023-01-28T05:32:58;5.07;;;2.55;;
75634;SDS011;64227;48.724;9.104;2023-01-28T05:35:23;5.60;;;3.33;;
75634;SDS011;64227;48.724;9.104;2023-01-28T05:37:48;4.65;;;3.10;;
75634;SDS011;64227;48.724;9.104;2023-01-28T05:40:15;7.18;;;3.67;;
75634;SDS011;64227;48.724;9.104;2023-01-28T05:42:41;4.60;;;3.05;;
75634;SDS011;64227;48.724;9.104;2023-01-28T05:45:06;5.60;;;2.80;;
75634;SDS011;64227;48.724;9.104;2023-01-28T05:47:32;7.18;;;3.45;;
75634;SDS011;64227;48.724;9.104;2023-01-28T05:49:58;7.32;;;3.97;;
75634;SDS011;64227;48.724;9.104;2023-01-28T05:52:23;6.55;;;3.08;;
75634;SDS011;64227;48.724;9.104;2023-01-28T05:54:48;5.30;;;3.13;;
75634;SDS011;64227;48.724;9.104;2023-01-28T05:57:14;4.95;;;3.30;;
75634;SDS011;64227;48.724;9.104;2023-01-28T05:59:39;6.60;;;3.75;;
75634;SDS011;64227;48.724;9.104;2023-01-28T06:02:04;6.20;;;3.73;;
75634;SDS011;64227;48.724;9.104;2023-01-28T06:04:29;6.20;;;3.92;;
75634;SDS011;64227;48.724;9.104;2023-01-28T06:06:55;9.40;;;3.70;;
75634;SDS011;64227;48.724;9.104;2023-01-28T06:09:20;5.07;;;3.23;;
75634;SDS011;64227;48.724;9.104;2023-01-28T06:11:45;6.88;;;3.88;;
75634;SDS011;64227;48.724;9.104;2023-01-28T06:14:11;4.15;;;2.85;;
75634;SDS011;64227;48.724;9.104;2023-01-28T06:16:36;5.03;;;2.65;;
75634;SDS011;64227;48.724;9.104;2023-01-28T06:19:01;5.20;;;2.73;;
75634;SDS011;64227;48.724;9.104;2023-01-28T06:21:27;6.63;;;3.03;;
75634;SDS011;64227;48.724;9.104;2023-01-28T06:23:52;4.82;;;2.50;;
75634;SDS011;64227;48.724;9.104;2023-01-28T06:26:17;6.87;;;3.60;;
75634;SDS011;64227;48.724;9.104;2023-01-28T06:28:43;7.68;;;3.58;;
75634;SDS011;64227;48.724;9.104;2023-01-28T06:31:08;6.65;;;3.30;;
75634;SDS011;64227;48.724;9.104;2023-01-28T06:33:33;7.35;;;4.13;;
75634;SDS011;64227;48.724;9.104;2023-01-28T06:36:01;6.93;;;3.85;;
75634;SDS011;64227;48.724;9.104;2023-01-28T06:38:27;6.78;;;4.10;;
75634;SDS011;64227;48.724;9.104;2023-01-28T06:40:53;7.20;;;3.95;;
75634;SDS011;64227;48.724;9.104;2023-01-28T06:43:20;7.60;;;3.78;;
75634;SDS011;64227;48.724;9.104;2023-01-28T06:45:51;6.05;;;3.25;;
75634;SDS011;64227;48.724;9.104;2023-01-28T06:48:16;3.78;;;2.72;;
75634;SDS011;64227;48.724;9.104;2023-01-28T06:50:42;6.85;;;3.00;;
75634;SDS011;64227;48.724;9.104;2023-01-28T06:53:07;6.03;;;3.63;;
75634;SDS011;64227;48.724;9.104;2023-01-28T06:55:32;6.63;;;3.95;;
75634;SDS011;64227;48.724;9.104;2023-01-28T06:57:57;8.07;;;4.80;;
75634;SDS011;64227;48.724;9.104;2023-01-28T07:00:23;4.93;;;2.87;;
75634;SDS011;64227;48.724;9.104;2023-01-28T07:02:48;4.60;;;2.80;;
75634;SDS011;64227;48.724;9.104;2023-01-28T07:05:13;6.55;;;3.42;;
75634;SDS011;64227;48.724;9.104;2023-01-28T07:07:39;7.40;;;3.97;;
75634;SDS011;64227;48.724;9.104;2023-01-28T07:10:04;5.72;;;3.72;;
75634;SDS011;64227;48.724;9.104;2023-01-28T07:12:30;4.82;;;2.55;;
75634;SDS011;64227;48.724;9.104;2023-01-28T07:14:55;5.77;;;2.90;;
75634;SDS011;64227;48.724;9.104;2023-01-28T07:17:21;5.50;;;3.08;;
75634;SDS011;64227;48.724;9.104;2023-01-28T07:19:46;6.20;;;3.20;;
75634;SDS011;64227;48.724;9.104;2023-01-28T07:22:11;3.97;;;2.88;;
75634;SDS011;64227;48.724;9.104;2023-01-28T07:24:36;6.57;;;3.67;;
75634;SDS011;64227;48.724;9.104;2023-01-28T07:27:02;5.82;;;3.50;;
75634;SDS011;64227;48.724;9.104;2023-01-28T07:29:28;6.22;;;3.85;;
75634;SDS011;64227;48.724;9.104;2023-01-28T07:31:53;7.18;;;4.18;;
75634;SDS011;64227;48.724;9.104;2023-01-28T07:34:19;6.50;;;3.50;;
75634;SDS011;64227;48.724;9.104;2023-01-28T07:36:44;7.53;;;4.07;;
75634;SDS011;64227;48.724;9.104;2023-01-28T07:39:09;4.70;;;2.93;;
75634;SDS011;64227;48.724;9.104;2023-01-28T07:41:35;6.43;;;3.30;;
75634;SDS011;64227;48.724;9.104;2023-01-28T07:44:00;6.03;;;3.70;;
75634;SDS011;64227;48.724;9.104;2023-01-28T07:46:25;6.22;;;3.30;;
75634;SDS011;64227;48.724;9.104;2023-01-28T07:48:52;4.43;;;2.50;;
75634;SDS011;64227;48.724;9.104;2023-01-28T07:51:17;4.88;;;2.78;;
75634;SDS011;64227;48.724;9.104;2023-01-28T07:53:42;4.00;;;2.90;;
75634;SDS011;64227;48.724;9.104;2023-01-28T07:56:08;7.32;;;3.33;;
75634;SDS011;64227;48.724;9.104;2023-01-28T07:58:33;7.03;;;3.67;;
75634;SDS011;64227;48.724;9.104;2023-01-28T08:00:59;4.38;;;3.03;;
75634;SDS011;64227;48.724;9.104;2023-01-28T08:03:24;4.13;;;2.78;;
75634;SDS011;64227;48.724;9.104;2023-01-28T08:05:51;6.15;;;3.97;;
75634;SDS011;64227;48.724;9.104;2023-01-28T08:08:17;6.13;;;3.47;;
75634;SDS011;64227;48.724;9.104;2023-01-28T08:10:43;9.45;;;4.30;;
75634;SDS011;64227;48.724;9.104;2023-01-28T08:13:09;6.10;;;3.78;;
75634;SDS011;64227;48.724;9.104;2023-01-28T08:15:35;6.53;;;3.95;;
75634;SDS011;64227;48.724;9.104;2023-01-28T08:18:01;5.60;;;3.78;;
75634;SDS011;64227;48.724;9.104;2023-01-28T08:20:27;4.60;;;3.38;;
75634;SDS011;64227;48.724;9.104;2023-01-28T08:22:53;8.23;;;4.35;;
75634;SDS011;64227;48.724;9.104;2023-01-28T08:25:28;5.80;;;3.58;;
75634;SDS011;64227;48.724;9.104;2023-01-28T08:27:53;4.97;;;2.97;;
75634;SDS011;64227;48.724;9.104;2023-01-28T08:30:18;4.67;;;3.60;;
75634;SDS011;64227;48.724;9.104;2023-01-28T08:32:43;4.97;;;3.20;;
75634;SDS011;64227;48.724;9.104;2023-01-28T08:35:09;5.35;;;3.70;;
75634;SDS011;64227;48.724;9.104;2023-01-28T08:37:34;6.47;;;3.60;;
75634;SDS011;64227;48.724;9.104;2023-01-28T08:39:59;7.22;;;4.18;;
75634;SDS011;64227;48.724;9.104;2023-01-28T08:42:25;6.07;;;3.95;;
75634;SDS011;64227;48.724;9.104;2023-01-28T08:44:50;7.07;;;4.00;;
75634;SDS011;64227;48.724;9.104;2023-01-28T08:47:15;8.60;;;4.57;;
75634;SDS011;64227;48.724;9.104;2023-01-28T08:49:41;6.40;;;3.92;;
75634;SDS011;64227;48.724;9.104;2023-01-28T08:52:06;6.27;;;3.60;;
75634;SDS011;64227;48.724;9.104;2023-01-28T08:54:31;5.07;;;3.17;;
75634;SDS011;64227;48.724;9.104;2023-01-28T08:56:57;5.47;;;3.47;;
75634;SDS011;64227;48.724;9.104;2023-01-28T08:59:22;7.00;;;4.10;;
75634;SDS011;64227;48.724;9.104;2023-01-28T09:01:47;4.78;;;3.33;;
75634;SDS011;64227;48.724;9.104;2023-01-28T09:04:13;7.60;;;4.20;;
75634;SDS011;64227;48.724;9.104;2023-01-28T09:06:38;6.83;;;4.27;;
75634;SDS011;64227;48.724;9.104;2023-01-28T09:09:03;5.40;;;3.63;;
75634;SDS011;64227;48.724;9.104;2023-01-28T09:11:29;8.57;;;4.97;;
75634;SDS011;64227;48.724;9.104;2023-01-28T09:13:56;6.63;;;4.18;;
75634;SDS011;64227;48.724;9.104;2023-01-28T09:16:21;8.35;;;4.70;;
75634;SDS011;64227;48.724;9.104;2023-01-28T09:18:47;7.75;;;4.70;;
75634;SDS011;64227;48.724;9.104;2023-01-28T09:21:12;5.47;;;3.88;;
75634;SDS011;64227;48.724;9.104;2023-01-28T09:23:38;8.30;;;4.38;;
75634;SDS011;64227;48.724;9.104;2023-01-28T09:26:03;7.60;;;4.65;;
75634;SDS011;64227;48.724;9.104;2023-01-28T09:28:29;6.75;;;3.75;;
75634;SDS011;64227;48.724;9.104;2023-01-28T09:31:02;8.27;;;4.97;;
75634;SDS011;64227;48.724;9.104;2023-01-28T09:33:28;7.82;;;4.47;;
75634;SDS011;64227;48.724;9.104;2023-01-28T09:35:54;6.38;;;4.07;;
75634;SDS011;64227;48.724;9.104;2023-01-28T09:38:19;6.93;;;4.40;;
75634;SDS011;64227;48.724;9.104;2023-01-28T09:40:45;6.80;;;3.73;;
75634;SDS011;64227;48.724;9.104;2023-01-28T09:46:01;7.00;;;4.13;;
75634;SDS011;64227;48.724;9.104;2023-01-28T09:48:33;8.00;;;4.03;;
75634;SDS011;64227;48.724;9.104;2023-01-28T09:51:03;7.65;;;4.95;;
75634;SDS011;64227;48.724;9.104;2023-01-28T09:53:34;7.18;;;4.20;;
75634;SDS011;64227;48.724;9.104;2023-01-28T09:56:04;10.73;;;5.43;;
75634;SDS011;64227;48.724;9.104;2023-01-28T09:58:33;9.73;;;5.20;;
75634;SDS011;64227;48.724;9.104;2023-01-28T10:01:46;7.15;;;4.38;;
75634;SDS011;64227;48.724;9.104;2023-01-28T10:03:56;6.25;;;3.85;;
75634;SDS011;64227;48.724;9.104;2023-01-28T10:09:20;5.95;;;4.38;;
75634;SDS011;64227;48.724;9.104;2023-01-28T10:19:37;8.45;;;5.03;;
75634;SDS011;64227;48.724;9.104;2023-01-28T10:22:08;9.00;;;5.10;;
75634;SDS011;64227;48.724;9.104;2023-01-28T10:24:39;7.32;;;4.28;;
75634;SDS011;64227;48.724;9.104;2023-01-28T10:27:14;7.85;;;4.22;;
75634;SDS011;64227;48.724;9.104;2023-01-28T10:34:50;6.20;;;3.78;;
75634;SDS011;64227;48.724;9.104;2023-01-28T10:37:16;7.72;;;4.50;;
75634;SDS011;64227;48.724;9.104;2023-01-28T10:39:41;8.25;;;4.55;;
75634;SDS011;64227;48.724;9.104;2023-01-28T10:42:13;7.45;;;4.60;;
75634;SDS011;64227;48.724;9.104;2023-01-28T10:44:41;8.45;;;5.18;;
75634;SDS011;64227;48.724;9.104;2023-01-28T10:47:11;7.65;;;3.95;;
75634;SDS011;64227;48.724;9.104;2023-01-28T10:49:41;6.90;;;4.60;;
75634;SDS011;64227;48.724;9.104;2023-01-28T10:52:10;8.25;;;4.20;;
75634;SDS011;64227;48.724;9.104;2023-01-28T10:54:38;6.95;;;4.32;;
75634;SDS011;64227;48.724;9.104;2023-01-28T10:57:04;9.20;;;4.80;;
75634;SDS011;64227;48.724;9.104;2023-01-28T10:59:36;8.30;;;4.78;;
75634;SDS011;64227;48.724;9.104;2023-01-28T11:02:27;8.82;;;5.25;;
75634;SDS011;64227;48.724;9.104;2023-01-28T11:05:04;8.98;;;4.65;;
75634;SDS011;64227;48.724;9.104;2023-01-28T11:07:41;8.20;;;4.60;;
75634;SDS011;64227;48.724;9.104;2023-01-28T11:12:56;9.63;;;4.63;;
75634;SDS011;64227;48.724;9.104;2023-01-28T11:15:22;7.45;;;4.75;;
75634;SDS011;64227;48.724;9.104;2023-01-28T11:17:50;11.50;;;5.78;;
75634;SDS011;64227;48.724;9.104;2023-01-28T11:20:21;9.48;;;5.57;;
75634;SDS011;64227;48.724;9.104;2023-01-28T11:22:49;7.40;;;4.78;;
75634;SDS011;64227;48.724;9.104;2023-01-28T11:25:21;8.00;;;4.07;;
75634;SDS011;64227;48.724;9.104;2023-01-28T11:27:52;6.53;;;3.80;;
75634;SDS011;64227;48.724;9.104;2023-01-28T11:33:02;9.32;;;4.72;;
75634;SDS011;64227;48.724;9.104;2023-01-28T11:35:31;8.00;;;4.10;;
75634;SDS011;64227;48.724;9.104;2023-01-28T11:37:57;9.82;;;4.95;;
75634;SDS011;64227;48.724;9.104;2023-01-28T11:40:23;11.38;;;5.03;;
75634;SDS011;64227;48.724;9.104;2023-01-28T11:42:49;12.00;;;5.55;;
75634;SDS011;64227;48.724;9.104;2023-01-28T11:45:17;11.43;;;5.25;;
75634;SDS011;64227;48.724;9.104;2023-01-28T11:53:03;8.57;;;5.05;;
75634;SDS011;64227;48.724;9.104;2023-01-28T11:58:20;7.70;;;4.57;;
75634;SDS011;64227;48.724;9.104;2023-01-28T12:01:08;7.25;;;4.22;;
75634;SDS011;64227;48.724;9.104;2023-01-28T12:09:31;8.40;;;4.65;;
75634;SDS011;64227;48.724;9.104;2023-01-28T12:28:43;13.90;;;6.65;;
75634;SDS011;64227;48.724;9.104;2023-01-28T12:31:27;9.88;;;5.47;;
75634;SDS011;64227;48.724;9.104;2023-01-28T12:48:10;9.65;;;5.55;;
75634;SDS011;64227;48.724;9.104;2023-01-28T12:50:43;10.80;;;5.60;;
75634;SDS011;64227;48.724;9.104;2023-01-28T12:53:21;9.75;;;5.30;;
75634;SDS011;64227;48.724;9.104;2023-01-28T12:56:03;11.57;;;5.93;;
75634;SDS011;64227;48.724;9.104;2023-01-28T12:58:46;9.63;;;5.28;;
75634;SDS011;64227;48.724;9.104;2023-01-28T13:01:17;10.27;;;5.85;;
75634;SDS011;64227;48.724;9.104;2023-01-28T13:06:25;10.20;;;5.07;;
75634;SDS011;64227;48.724;9.104;2023-01-28T13:08:55;9.45;;;5.30;;
75634;SDS011;64227;48.724;9.104;2023-01-28T13:11:34;10.80;;;5.53;;
75634;SDS011;64227;48.724;9.104;2023-01-28T13:14:00;11.52;;;5.97;;
75634;SDS011;64227;48.724;9.104;2023-01-28T13:16:26;10.13;;;5.65;;
75634;SDS011;64227;48.724;9.104;2023-01-28T13:18:52;11.55;;;5.50;;
75634;SDS011;64227;48.724;9.104;2023-01-28T13:23:50;13.52;;;5.82;;
75634;SDS011;64227;48.724;9.104;2023-01-28T13:26:28;11.48;;;5.53;;
75634;SDS011;64227;48.724;9.104;2023-01-28T13:31:41;8.10;;;4.00;;
75634;SDS011;64227;48.724;9.104;2023-01-28T13:34:09;6.82;;;3.88;;
75634;SDS011;64227;48.724;9.104;2023-01-28T13:36:50;6.35;;;3.97;;
75634;SDS011;64227;48.724;9.104;2023-01-28T13:41:44;9.48;;;5.10;;
75634;SDS011;64227;48.724;9.104;2023-01-28T13:44:42;6.88;;;3.17;;
75634;SDS011;64227;48.724;9.104;2023-01-28T13:49:40;6.88;;;3.88;;
75634;SDS011;64227;48.724;9.104;2023-01-28T13:54:35;5.20;;;2.85;;
75634;SDS011;64227;48.724;9.104;2023-01-28T14:00:01;6.28;;;2.92;;
75634;SDS011;64227;48.724;9.104;2023-01-28T14:08:19;4.78;;;2.63;;
75634;SDS011;64227;48.724;9.104;2023-01-28T14:16:54;5.72;;;3.13;;
75634;SDS011;64227;48.724;9.104;2023-01-28T14:19:25;3.33;;;2.50;;
75634;SDS011;64227;48.724;9.104;2023-01-28T14:21:52;7.20;;;3.40;;
75634;SDS011;64227;48.724;9.104;2023-01-28T14:24:18;5.93;;;3.15;;
75634;SDS011;64227;48.724;9.104;2023-01-28T14:29:41;4.75;;;2.97;;
75634;SDS011;64227;48.724;9.104;2023-01-28T14:32:11;6.65;;;3.20;;
75634;SDS011;64227;48.724;9.104;2023-01-28T14:34:39;5.97;;;3.28;;
75634;SDS011;64227;48.724;9.104;2023-01-28T14:37:06;4.70;;;2.60;;
75634;SDS011;64227;48.724;9.104;2023-01-28T14:39:39;5.22;;;3.03;;
75634;SDS011;64227;48.724;9.104;2023-01-28T14:42:05;6.28;;;3.55;;
75634;SDS011;64227;48.724;9.104;2023-01-28T14:44:39;8.05;;;3.40;;
75634;SDS011;64227;48.724;9.104;2023-01-28T14:58:14;5.05;;;3.72;;
75634;SDS011;64227;48.724;9.104;2023-01-28T15:00:51;6.63;;;3.15;;
75634;SDS011;64227;48.724;9.104;2023-01-28T15:03:20;8.90;;;3.72;;
75634;SDS011;64227;48.724;9.104;2023-01-28T15:05:46;7.80;;;4.18;;
75634;SDS011;64227;48.724;9.104;2023-01-28T15:08:18;8.40;;;4.43;;
75634;SDS011;64227;48.724;9.104;2023-01-28T15:10:47;6.20;;;3.50;;
75634;SDS011;64227;48.724;9.104;2023-01-28T15:13:27;7.72;;;4.32;;
75634;SDS011;64227;48.724;9.104;2023-01-28T15:15:54;6.30;;;3.75;;
75634;SDS011;64227;48.724;9.104;2023-01-28T15:18:55;5.95;;;3.60;;
75634;SDS011;64227;48.724;9.104;2023-01-28T15:21:18;7.35;;;3.78;;
75634;SDS011;64227;48.724;9.104;2023-01-28T15:23:46;5.50;;;3.45;;
75634;SDS011;64227;48.724;9.104;2023-01-28T15:26:20;4.18;;;2.65;;
75634;SDS011;64227;48.724;9.104;2023-01-28T15:28:48;6.45;;;4.07;;
75634;SDS011;64227;48.724;9.104;2023-01-28T15:31:35;6.68;;;4.18;;
75634;SDS011;64227;48.724;9.104;2023-01-28T15:34:08;6.30;;;3.30;;
75634;SDS011;64227;48.724;9.104;2023-01-28T15:36:36;5.70;;;4.05;;
75634;SDS011;64227;48.724;9.104;2023-01-28T15:39:01;4.60;;;3.45;;
75634;SDS011;64227;48.724;9.104;2023-01-28T15:41:28;7.32;;;3.35;;
75634;SDS011;64227;48.724;9.104;2023-01-28T15:43:56;5.45;;;3.40;;
75634;SDS011;64227;48.724;9.104;2023-01-28T15:46:21;5.20;;;3.42;;
75634;SDS011;64227;48.724;9.104;2023-01-28T15:48:48;4.47;;;2.95;;
75634;SDS011;64227;48.724;9.104;2023-01-28T15:51:18;4.43;;;3.25;;
75634;SDS011;64227;48.724;9.104;2023-01-28T15:53:46;5.22;;;3.42;;
75634;SDS011;64227;48.724;9.104;2023-01-28T15:56:14;5.00;;;3.00;;
75634;SDS011;64227;48.724;9.104;2023-01-28T15:58:40;5.65;;;3.22;;
75634;SDS011;64227;48.724;9.104;2023-01-28T16:03:36;6.38;;;3.85;;
75634;SDS011;64227;48.724;9.104;2023-01-28T16:11:21;5.35;;;3.28;;
75634;SDS011;64227;48.724;9.104;2023-01-28T16:13:48;4.70;;;2.97;;
75634;SDS011;64227;48.724;9.104;2023-01-28T16:16:13;5.50;;;3.50;;
75634;SDS011;64227;48.724;9.104;2023-01-28T16:18:40;6.72;;;3.70;;
75634;SDS011;64227;48.724;9.104;2023-01-28T16:21:08;5.78;;;3.42;;
75634;SDS011;64227;48.724;9.104;2023-01-28T16:23:36;7.25;;;3.50;;
75634;SDS011;64227;48.724;9.104;2023-01-28T16:26:03;6.35;;;3.65;;
75634;SDS011;64227;48.724;9.104;2023-01-28T16:28:30;5.80;;;3.95;;
75634;SDS011;64227;48.724;9.104;2023-01-28T16:30:56;5.40;;;3.42;;
75634;SDS011;64227;48.724;9.104;2023-01-28T16:33:23;5.15;;;3.25;;
75634;SDS011;64227;48.724;9.104;2023-01-28T16:35:48;4.80;;;3.15;;
75634;SDS011;64227;48.724;9.104;2023-01-28T16:38:14;7.57;;;3.88;;
75634;SDS011;64227;48.724;9.104;2023-01-28T16:40:42;6.07;;;3.72;;
75634;SDS011;64227;48.724;9.104;2023-01-28T16:43:09;5.55;;;3.85;;
75634;SDS011;64227;48.724;9.104;2023-01-28T16:45:36;6.07;;;2.92;;
75634;SDS011;64227;48.724;9.104;2023-01-28T16:48:02;5.25;;;2.88;;
75634;SDS011;64227;48.724;9.104;2023-01-28T16:50:27;6.07;;;2.70;;
75634;SDS011;64227;48.724;9.104;2023-01-28T16:52:53;5.45;;;3.40;;
75634;SDS011;64227;48.724;9.104;2023-01-28T16:55:19;7.03;;;4.10;;
75634;SDS011;64227;48.724;9.104;2023-01-28T16:57:46;5.13;;;3.72;;
75634;SDS011;64227;48.724;9.104;2023-01-28T17:00:18;5.45;;;3.38;;
75634;SDS011;64227;48.724;9.104;2023-01-28T17:02:47;6.03;;;3.58;;
75634;SDS011;64227;48.724;9.104;2023-01-28T17:05:12;8.90;;;4.30;;
75634;SDS011;64227;48.724;9.104;2023-01-28T17:07:39;6.75;;;5.53;;
75634;SDS011;64227;48.724;9.104;2023-01-28T17:10:04;10.75;;;6.30;;
75634;SDS011;64227;48.724;9.104;2023-01-28T17:12:30;8.35;;;5.93;;
75634;SDS011;64227;48.724;9.104;2023-01-28T17:14:55;7.05;;;4.88;;
75634;SDS011;64227;48.724;9.104;2023-01-28T17:17:21;5.75;;;3.80;;
75634;SDS011;64227;48.724;9.104;2023-01-28T17:19:46;6.03;;;3.50;;
75634;SDS011;64227;48.724;9.104;2023-01-28T17:22:11;7.70;;;4.65;;
75634;SDS011;64227;48.724;9.104;2023-01-28T17:24:37;4.82;;;3.33;;